KYIP/YIP METAR and TAF weather

Enter ICAO airport designator
Station Type Date Time Source
KYIP METAR 2020/09/24 10:53 UTC NOAA

KYIP 241053Z 20004KT 7SM CLR 14/12 A2997 RMK AO2 SLP145 T01390122


Station Type Date Time Source
KYIP Decoded METAR 2020/09/24 10:53 UTC NOAA

WILLOW RUN AIRPORT, MI, United States (KYIP) 42-14N 083-32W 215M
Sep 24, 2020 - 06:53 AM EDT / 2020.09.24 1053 UTC
Wind: from the SSW (200 degrees) at 5 MPH (4 KT):0
Visibility: 7 mile(s):0
Sky conditions: clear
Temperature: 57.0 F (13.9 C)
Dew Point: 54.0 F (12.2 C)
Relative Humidity: 89%
Pressure (altimeter): 29.97 in. Hg (1014 hPa)
ob: KYIP 241053Z 20004KT 7SM CLR 14/12 A2997 RMK AO2 SLP145 T01390122
cycle: 11

Station Type Date Time Source
KYIP TAF 2020/09/24 12:22 UTC NOAA

TAF KYIP 241120Z 2412/2512 22005KT P6SM BKN250
TEMPO 2412/2413 6SM HZ
FM241500 23010KT P6SM FEW200
FM250000 22005KT P6SM SCT200

Example: see airport list